createdAt,value
2018-01-28T00:00:19.134Z,100486.17
2018-01-28T00:06:22.578Z,100479.09
2018-01-28T00:12:26.093Z,100437.03
2018-01-28T00:18:29.614Z,100442.78
2018-01-28T00:24:33.134Z,100453.42
2018-01-28T00:30:36.665Z,100453.42
2018-01-28T00:36:40.186Z,100429.25
2018-01-28T00:42:43.701Z,100375.84
2018-01-28T00:48:47.223Z,100369.69
2018-01-28T00:54:50.799Z,100376.19
2018-01-28T01:00:54.267Z,100377.83
2018-01-28T01:06:57.683Z,100386.00
2018-01-28T01:13:01.110Z,100371.38
2018-01-28T01:19:04.615Z,100351.70
2018-01-28T01:25:08.051Z,100348.28
2018-01-28T01:31:11.463Z,100360.81
2018-01-28T01:37:14.881Z,100346.11
2018-01-28T01:43:18.323Z,100355.34
2018-01-28T01:49:35.363Z,100344.63
2018-01-28T01:55:40.320Z,100366.40
2018-01-28T02:01:43.776Z,100349.60
2018-01-28T02:07:47.971Z,100343.22
2018-01-28T02:13:51.395Z,100344.50
2018-01-28T02:19:54.810Z,100342.95
2018-01-28T02:25:58.222Z,100318.81
2018-01-28T02:32:01.624Z,100355.34
2018-01-28T02:38:05.047Z,100344.92
2018-01-28T02:44:08.464Z,100353.17
2018-01-28T02:50:11.871Z,100340.52
2018-01-28T02:56:15.275Z,100338.55
2018-01-28T03:02:18.680Z,100352.34
2018-01-28T03:08:22.864Z,100329.52
2018-01-28T03:14:26.362Z,100340.30
2018-01-28T03:20:29.830Z,100358.69
2018-01-28T03:26:33.447Z,100375.53
2018-01-28T03:32:36.853Z,100366.98
2018-01-28T03:38:40.564Z,100382.45
2018-01-28T03:44:44.015Z,100383.09
2018-01-28T03:50:47.437Z,100385.30
2018-01-28T03:56:50.863Z,100378.92
2018-01-28T04:02:54.279Z,100356.67
2018-01-28T04:08:57.751Z,100371.36
2018-01-28T04:15:01.150Z,100361.64
2018-01-28T04:21:05.320Z,100360.42
2018-01-28T04:27:08.731Z,100347.29
2018-01-28T04:33:12.189Z,100347.13
2018-01-28T04:39:15.599Z,100367.87
2018-01-28T04:45:19.014Z,100377.17
2018-01-28T04:51:22.413Z,100377.11
2018-01-28T04:57:25.809Z,100380.04
2018-01-28T05:03:29.207Z,100369.71
2018-01-28T05:09:33.360Z,100383.84
2018-01-28T05:15:37.534Z,100384.95
2018-01-28T05:21:40.942Z,100396.98
2018-01-28T05:27:44.391Z,100410.92
2018-01-28T05:33:47.802Z,100419.19
2018-01-28T05:39:51.224Z,100429.00
2018-01-28T05:45:54.637Z,100420.56
2018-01-28T05:51:58.070Z,100426.00
2018-01-28T05:58:01.482Z,100410.97
2018-01-28T06:04:04.930Z,100413.70
2018-01-28T06:10:09.098Z,100422.82
2018-01-28T06:16:12.528Z,100452.58
2018-01-28T06:22:15.934Z,100457.17
2018-01-28T06:28:19.392Z,100470.44
2018-01-28T06:34:22.796Z,100469.66
2018-01-28T06:40:26.284Z,100473.95
2018-01-28T06:46:29.678Z,100473.53
2018-01-28T06:52:33.097Z,100477.94
2018-01-28T06:58:36.498Z,100478.51
2018-01-28T07:04:39.885Z,100477.52
2018-01-28T07:10:43.280Z,100492.43
2018-01-28T07:16:46.675Z,100504.14
2018-01-28T07:22:50.851Z,100509.54
2018-01-28T07:28:54.259Z,100526.61
2018-01-28T07:34:57.667Z,100538.05
2018-01-28T07:41:01.072Z,100541.98
2018-01-28T07:47:05.262Z,100543.38
2018-01-28T07:53:08.647Z,100543.73
2018-01-28T07:59:12.045Z,100550.45
2018-01-28T08:05:16.222Z,100551.14
2018-01-28T08:11:23.520Z,100564.22
2018-01-28T08:17:26.908Z,100561.38
2018-01-28T08:23:31.141Z,100559.70
2018-01-28T08:29:36.321Z,100573.92
2018-01-28T08:35:40.537Z,100563.46
2018-01-28T08:41:43.935Z,100572.02
2018-01-28T08:47:47.365Z,100568.94
2018-01-28T08:53:50.778Z,100571.59
2018-01-28T08:59:54.211Z,100563.73
2018-01-28T09:05:57.628Z,100563.05
2018-01-28T09:12:01.020Z,100572.59
2018-01-28T09:18:04.420Z,100571.67
2018-01-28T09:24:07.858Z,100580.27
2018-01-28T09:30:11.250Z,100584.33
2018-01-28T09:36:14.665Z,100602.72
2018-01-28T09:42:18.072Z,100588.49
2018-01-28T09:48:21.494Z,100575.94
2018-01-28T09:54:24.888Z,100575.32
2018-01-28T10:00:29.052Z,100576.91
2018-01-28T10:06:32.462Z,100597.18
2018-01-28T10:12:35.863Z,100607.27
2018-01-28T10:18:40.022Z,100622.27
2018-01-28T10:24:43.424Z,100623.03
2018-01-28T10:30:47.559Z,100629.34
2018-01-28T10:36:51.747Z,100613.34
2018-01-28T10:42:55.160Z,100612.20
2018-01-28T10:48:58.591Z,100633.59
2018-01-28T10:55:02.343Z,100643.20
2018-01-28T11:01:05.777Z,100635.62
2018-01-28T11:07:09.971Z,100612.74
2018-01-28T11:13:13.392Z,100619.78
2018-01-28T11:19:16.791Z,100618.75
2018-01-28T11:25:20.203Z,100618.00
2018-01-28T11:31:23.622Z,100618.92
2018-01-28T11:37:27.056Z,100608.95
2018-01-28T11:43:30.495Z,100605.06
2018-01-28T11:49:33.908Z,100604.95
2018-01-28T11:55:37.312Z,100584.00
2018-01-28T12:01:40.695Z,100571.11
2018-01-28T12:07:44.875Z,100567.44
2018-01-28T12:13:48.377Z,100580.09
2018-01-28T12:19:51.795Z,100589.61
2018-01-28T12:25:55.218Z,100603.21
2018-01-28T12:31:58.620Z,100587.43
2018-01-28T12:38:02.023Z,100572.41
2018-01-28T12:44:06.155Z,100589.56
2018-01-28T12:50:10.324Z,100600.45
2018-01-28T12:56:13.731Z,100585.19
2018-01-28T13:02:17.163Z,100574.92
2018-01-28T13:08:20.615Z,100571.16
2018-01-28T13:14:24.031Z,100549.01
2018-01-28T13:20:27.431Z,100550.16
2018-01-28T13:26:30.863Z,100554.38
2018-01-28T13:32:34.285Z,100558.27
2018-01-28T13:38:37.704Z,100555.59
2018-01-28T13:44:41.146Z,100565.98
2018-01-28T13:50:44.623Z,100578.30
2018-01-28T13:56:48.755Z,100574.94
2018-01-28T14:02:52.181Z,100572.78
2018-01-28T14:08:55.609Z,100576.10
2018-01-28T14:14:59.046Z,100573.71
2018-01-28T14:21:02.488Z,100577.05
2018-01-28T14:27:06.697Z,100561.75
2018-01-28T14:33:10.127Z,100569.32
2018-01-28T14:39:13.540Z,100559.39
2018-01-28T14:45:16.949Z,100569.27
2018-01-28T14:51:20.393Z,100587.09
2018-01-28T14:57:23.795Z,100591.18
2018-01-28T15:03:27.236Z,100589.06
2018-01-28T15:09:30.649Z,100589.41
2018-01-28T15:15:34.059Z,100593.02
2018-01-28T15:21:37.467Z,100602.91
2018-01-28T15:27:40.911Z,100578.08
2018-01-28T15:33:44.452Z,100579.20
2018-01-28T15:39:47.901Z,100582.21
2018-01-28T15:45:51.323Z,100571.16
2018-01-28T15:51:54.763Z,100570.89
2018-01-28T15:57:58.171Z,100579.63
2018-01-28T16:04:01.608Z,100580.31
2018-01-28T16:10:05.015Z,100564.02
2018-01-28T16:16:08.406Z,100565.42
2018-01-28T16:22:11.839Z,100564.85
2018-01-28T16:28:15.237Z,100569.00
2018-01-28T16:34:18.675Z,100564.73
2018-01-28T16:40:22.071Z,100572.67
2018-01-28T16:46:25.473Z,100577.55
2018-01-28T16:52:29.632Z,100581.61
2018-01-28T16:58:33.049Z,100576.75
2018-01-28T17:04:36.510Z,100559.45
2018-01-28T17:10:39.917Z,100563.72
2018-01-28T17:16:43.333Z,100567.14
2018-01-28T17:22:47.578Z,100580.66
2018-01-28T17:28:51.000Z,100573.78
2018-01-28T17:34:54.423Z,100577.54
2018-01-28T17:40:58.892Z,100558.31
2018-01-28T17:47:02.356Z,100560.19
2018-01-28T17:53:05.766Z,100558.35
2018-01-28T17:59:09.188Z,100547.59
2018-01-28T18:05:12.611Z,100548.55
2018-01-28T18:11:16.059Z,100548.13
2018-01-28T18:17:19.486Z,100551.88
2018-01-28T18:23:22.926Z,100545.34
2018-01-28T18:29:26.399Z,100542.16
2018-01-28T18:35:29.839Z,100546.23
2018-01-28T18:41:33.279Z,100543.81
2018-01-28T18:47:36.726Z,100536.42
2018-01-28T18:53:40.899Z,100542.55
2018-01-28T18:59:45.527Z,100562.39
2018-01-28T19:05:49.552Z,100555.20
2018-01-28T19:11:52.967Z,100545.84
2018-01-28T19:17:57.280Z,100547.06
2018-01-28T19:24:00.691Z,100550.50
2018-01-28T19:30:04.098Z,100548.80
2018-01-28T19:36:07.559Z,100542.83
2018-01-28T19:42:11.778Z,100544.22
2018-01-28T19:48:15.211Z,100542.84
2018-01-28T19:54:19.395Z,100547.45
2018-01-28T20:00:22.819Z,100561.20
2018-01-28T20:06:26.248Z,100562.66
2018-01-28T20:12:29.676Z,100558.94
2018-01-28T20:18:33.102Z,100548.31
2018-01-28T20:24:36.735Z,100552.95
2018-01-28T20:30:40.143Z,100557.24
2018-01-28T20:36:43.558Z,100552.39
2018-01-28T20:42:46.971Z,100553.23
2018-01-28T20:48:50.406Z,100552.07
2018-01-28T20:54:53.833Z,100559.09
2018-01-28T21:00:57.256Z,100557.84
2018-01-28T21:07:01.424Z,100558.86
2018-01-28T21:13:04.881Z,100547.64
2018-01-28T21:19:08.268Z,100555.73
2018-01-28T21:25:11.690Z,100558.15
2018-01-28T21:31:15.715Z,100557.56
2018-01-28T21:37:19.245Z,100558.48
2018-01-28T21:43:22.664Z,100560.53
2018-01-28T21:49:26.099Z,100555.68
2018-01-28T21:55:29.521Z,100562.76
2018-01-28T22:01:32.925Z,100563.22
2018-01-28T22:07:36.326Z,100568.22
2018-01-28T22:13:39.731Z,100557.79
2018-01-28T22:19:43.138Z,100564.73
2018-01-28T22:25:46.568Z,100565.15
2018-01-28T22:31:50.738Z,100567.71
2018-01-28T22:37:54.141Z,100564.81
2018-01-28T22:43:57.560Z,100559.73
2018-01-28T22:50:00.978Z,100566.81
2018-01-28T22:56:04.391Z,100568.61
2018-01-28T23:02:07.796Z,100555.83
2018-01-28T23:08:11.970Z,100551.12
2018-01-28T23:14:15.368Z,100552.66
2018-01-28T23:20:18.750Z,100551.73
2018-01-28T23:26:22.163Z,100544.75
2018-01-28T23:32:25.569Z,100553.44
2018-01-28T23:38:28.986Z,100554.55
2018-01-28T23:44:32.462Z,100548.95
2018-01-28T23:50:35.895Z,100548.95
2018-01-28T23:56:39.303Z,100549.01
